createdAt,value
2019-04-03T00:00:48.593Z,48.55957
2019-04-03T00:01:58.098Z,48.046875
2019-04-03T00:03:08.627Z,47.613525
2019-04-03T00:04:18.127Z,47.412109
2019-04-03T00:05:27.628Z,47.613525
2019-04-03T00:06:37.126Z,47.412109
2019-04-03T00:07:46.630Z,47.412109
2019-04-03T00:08:56.141Z,47.515869
2019-04-03T00:10:06.596Z,47.717285
2019-04-03T00:11:15.125Z,47.613525
2019-04-03T00:12:24.633Z,47.515869
2019-04-03T00:13:34.180Z,47.717285
2019-04-03T00:14:44.636Z,47.717285
2019-04-03T00:15:54.140Z,47.924805
2019-04-03T00:17:03.641Z,48.33374
2019-04-03T00:18:15.615Z,48.126221
2019-04-03T00:19:22.663Z,48.126221
2019-04-03T00:20:32.161Z,48.431396
2019-04-03T00:21:41.660Z,48.33374
2019-04-03T00:22:51.873Z,48.33374
2019-04-03T00:24:00.663Z,48.431396
2019-04-03T00:25:10.167Z,48.638916
2019-04-03T00:26:20.450Z,48.535156
2019-04-03T00:27:29.159Z,48.638916
2019-04-03T00:28:38.696Z,48.968506
2019-04-03T00:29:48.184Z,48.864746
2019-04-03T00:30:57.682Z,48.968506
2019-04-03T00:32:07.186Z,49.072266
2019-04-03T00:33:16.723Z,49.377441
2019-04-03T00:34:27.283Z,49.072266
2019-04-03T00:35:36.856Z,48.968506
2019-04-03T00:36:46.226Z,49.273682
2019-04-03T00:37:56.707Z,49.273682
2019-04-03T00:39:06.220Z,49.377441
2019-04-03T00:40:15.725Z,49.169922
2019-04-03T00:41:25.233Z,49.169922
2019-04-03T00:42:34.724Z,49.786377
2019-04-03T00:43:44.265Z,49.481201
2019-04-03T00:44:54.654Z,49.578857
2019-04-03T00:46:03.279Z,49.578857
2019-04-03T00:47:12.784Z,49.481201
2019-04-03T00:48:23.652Z,49.481201
2019-04-03T00:49:31.782Z,50.195312
2019-04-03T00:50:41.293Z,49.890137
2019-04-03T00:51:50.802Z,50.091553
2019-04-03T00:53:01.297Z,50.091553
2019-04-03T00:54:10.811Z,50.524902
2019-04-03T00:55:20.323Z,50.115967
2019-04-03T00:56:30.812Z,50.115967
2019-04-03T00:57:40.313Z,50.421143
2019-04-03T00:58:50.008Z,50.195312
2019-04-03T01:00:00.553Z,50.091553
2019-04-03T01:01:09.963Z,50.091553
2019-04-03T01:02:19.495Z,49.890137
2019-04-03T01:03:28.996Z,49.987793
2019-04-03T01:04:38.656Z,50.195312
2019-04-03T01:05:47.994Z,50.195312
2019-04-03T01:06:58.554Z,50.396729
2019-04-03T01:08:06.986Z,50.396729
2019-04-03T01:09:16.505Z,50.396729
2019-04-03T01:10:26.005Z,50.396729
2019-04-03T01:11:35.498Z,50.396729
2019-04-03T01:12:44.996Z,50.500488
2019-04-03T01:13:54.516Z,50.708008
2019-04-03T01:15:05.031Z,50.909424
2019-04-03T01:16:14.530Z,51.116943
2019-04-03T01:17:24.038Z,50.708008
2019-04-03T01:18:35.087Z,50.604248
2019-04-03T01:19:44.052Z,50.604248
2019-04-03T01:20:53.551Z,50.708008
2019-04-03T01:22:03.057Z,50.604248
2019-04-03T01:23:12.736Z,50.708008
2019-04-03T01:24:22.225Z,50.805664
2019-04-03T01:25:31.686Z,50.708008
2019-04-03T01:26:41.252Z,50.805664
2019-04-03T01:27:50.626Z,50.909424
2019-04-03T01:29:00.057Z,50.805664
2019-04-03T01:30:09.581Z,50.805664
2019-04-03T01:31:19.349Z,50.909424
2019-04-03T01:32:28.584Z,50.708008
2019-04-03T01:33:38.080Z,50.909424
2019-04-03T01:34:47.959Z,50.909424
2019-04-03T01:35:57.272Z,50.805664
2019-04-03T01:37:07.605Z,51.013184
2019-04-03T01:38:17.647Z,51.013184
2019-04-03T01:39:26.621Z,51.318359
2019-04-03T01:40:36.150Z,51.318359
2019-04-03T01:41:45.808Z,51.525879
2019-04-03T01:42:56.121Z,51.525879
2019-04-03T01:44:05.637Z,51.855469
2019-04-03T01:45:15.160Z,51.831055
2019-04-03T01:46:27.114Z,51.342773
2019-04-03T01:47:34.329Z,51.647949
2019-04-03T01:48:43.655Z,51.342773
2019-04-03T01:49:53.163Z,51.2146
2019-04-03T01:51:03.672Z,51.2146
2019-04-03T01:52:13.173Z,51.116943
2019-04-03T01:53:22.671Z,51.013184
2019-04-03T01:54:33.670Z,51.318359
2019-04-03T01:55:41.794Z,51.013184
2019-04-03T01:56:51.265Z,50.909424
2019-04-03T01:58:00.704Z,51.013184
2019-04-03T01:59:11.200Z,51.013184
2019-04-03T02:00:20.716Z,50.805664
2019-04-03T02:01:30.227Z,51.2146
2019-04-03T02:02:39.707Z,50.909424
2019-04-03T02:03:49.236Z,50.708008
2019-04-03T02:04:58.740Z,50.708008
2019-04-03T02:06:08.232Z,50.500488
2019-04-03T02:07:18.726Z,50.604248
2019-04-03T02:08:28.226Z,50.396729
2019-04-03T02:09:37.772Z,50.396729
2019-04-03T02:10:48.869Z,50.396729
2019-04-03T02:11:56.746Z,50.500488
2019-04-03T02:13:06.247Z,50.708008
2019-04-03T02:14:15.745Z,50.805664
2019-04-03T02:15:26.275Z,51.318359
2019-04-03T02:16:35.774Z,50.805664
2019-04-03T02:17:45.495Z,51.2146
2019-04-03T02:18:55.352Z,51.623535
2019-04-03T02:20:04.290Z,51.422119
2019-04-03T02:21:13.796Z,51.2146
2019-04-03T02:22:23.411Z,51.525879
2019-04-03T02:23:33.786Z,51.422119
2019-04-03T02:24:43.309Z,51.623535
2019-04-03T02:25:52.807Z,51.831055
2019-04-03T02:27:03.055Z,52.13623
2019-04-03T02:28:11.796Z,51.953125
2019-04-03T02:29:21.439Z,51.953125
2019-04-03T02:30:30.820Z,52.056885
2019-04-03T02:31:40.320Z,52.160645
2019-04-03T02:32:49.820Z,52.056885
2019-04-03T02:34:02.149Z,52.368164
2019-04-03T02:35:09.794Z,52.368164
2019-04-03T02:36:19.324Z,52.56958
2019-04-03T02:37:28.813Z,52.368164
2019-04-03T02:38:38.318Z,52.368164
2019-04-03T02:39:48.005Z,52.368164
2019-04-03T02:40:57.348Z,52.46582
2019-04-03T02:42:09.273Z,52.46582
2019-04-03T02:43:17.554Z,52.56958
2019-04-03T02:44:26.883Z,52.46582
2019-04-03T02:45:36.326Z,52.7771
2019-04-03T02:46:45.827Z,52.801514
2019-04-03T02:47:55.441Z,52.697754
2019-04-03T02:49:04.832Z,53.308105
2019-04-03T02:50:15.547Z,53.308105
2019-04-03T02:51:24.888Z,53.411865
2019-04-03T02:52:34.329Z,53.411865
2019-04-03T02:53:43.836Z,53.619385
2019-04-03T02:54:53.838Z,53.411865
2019-04-03T02:56:02.859Z,53.924561
2019-04-03T02:57:16.091Z,54.02832
2019-04-03T02:58:23.343Z,54.56543
2019-04-03T02:59:32.323Z,54.156494
2019-04-03T03:00:41.834Z,54.052734
2019-04-03T03:01:51.617Z,54.25415
2019-04-03T03:03:00.850Z,54.25415
2019-04-03T03:04:10.348Z,54.46167
2019-04-03T03:05:20.200Z,54.56543
2019-04-03T03:06:32.711Z,54.974365
2019-04-03T03:07:39.927Z,54.870605
2019-04-03T03:08:49.351Z,56.304932
2019-04-03T03:09:59.200Z,55.511475
2019-04-03T03:11:08.372Z,54.998779
2019-04-03T03:12:17.990Z,55.102539
2019-04-03T03:13:27.394Z,55.206299
2019-04-03T03:14:39.217Z,55.615234
2019-04-03T03:15:47.530Z,55.615234
2019-04-03T03:16:56.872Z,55.511475
2019-04-03T03:18:06.442Z,55.511475
2019-04-03T03:19:15.938Z,55.303955
2019-04-03T03:20:25.500Z,55.303955
2019-04-03T03:21:34.979Z,55.407715
2019-04-03T03:22:44.490Z,55.303955
2019-04-03T03:23:55.798Z,55.102539
2019-04-03T03:25:04.462Z,55.407715
2019-04-03T03:26:14.166Z,55.303955
2019-04-03T03:27:23.586Z,55.615234
2019-04-03T03:28:32.977Z,55.92041
2019-04-03T03:29:42.592Z,55.92041
2019-04-03T03:30:59.093Z,55.92041
2019-04-03T03:32:12.384Z,55.81665
2019-04-03T03:33:26.279Z,56.225586
2019-04-03T03:34:44.562Z,56.329346
2019-04-03T03:35:40.041Z,55.92041
2019-04-03T03:36:44.675Z,56.329346
2019-04-03T03:37:53.959Z,56.12793
2019-04-03T03:39:03.364Z,55.92041
2019-04-03T03:40:16.093Z,56.12793
2019-04-03T03:41:24.132Z,56.02417
2019-04-03T03:42:32.869Z,56.02417
2019-04-03T03:43:42.366Z,56.02417
2019-04-03T03:44:52.171Z,56.12793
2019-04-03T03:46:01.379Z,56.225586
2019-04-03T03:47:10.879Z,56.45752
2019-04-03T03:48:20.705Z,56.35376
2019-04-03T03:49:29.973Z,56.665039
2019-04-03T03:50:39.394Z,56.45752
2019-04-03T03:51:49.201Z,56.45752
2019-04-03T03:52:58.503Z,56.768799
2019-04-03T03:54:07.890Z,56.866455
2019-04-03T03:55:17.392Z,56.970215
2019-04-03T03:56:30.488Z,56.866455
2019-04-03T03:57:39.055Z,56.768799
2019-04-03T03:58:46.866Z,56.768799
2019-04-03T03:59:56.352Z,57.177734
2019-04-03T04:01:05.883Z,57.58667
2019-04-03T04:02:15.368Z,57.922363
2019-04-03T04:03:24.928Z,58.227539
2019-04-03T04:04:34.377Z,58.636475
2019-04-03T04:05:43.923Z,58.947754
2019-04-03T04:06:53.399Z,59.283447
2019-04-03T04:08:03.153Z,59.381104
2019-04-03T04:09:15.557Z,59.796143
2019-04-03T04:10:25.085Z,59.924316
2019-04-03T04:11:33.348Z,59.716797
2019-04-03T04:12:42.847Z,60.845947
2019-04-03T04:13:52.353Z,60.565186
2019-04-03T04:15:01.969Z,60.772705
2019-04-03T04:16:11.643Z,61.083984
2019-04-03T04:17:20.953Z,61.724854
2019-04-03T04:18:30.389Z,61.932373
2019-04-03T04:19:40.193Z,61.932373
2019-04-03T04:20:49.407Z,61.523438
2019-04-03T04:21:58.910Z,61.724854
2019-04-03T04:23:08.504Z,62.164307
2019-04-03T04:24:17.911Z,62.780762
2019-04-03T04:25:28.254Z,62.371826
2019-04-03T04:26:36.935Z,63.293457
2019-04-03T04:27:46.492Z,63.83667
2019-04-03T04:28:55.934Z,63.83667
2019-04-03T04:30:05.442Z,64.147949
2019-04-03T04:31:16.078Z,64.868164
2019-04-03T04:32:25.466Z,64.147949
2019-04-03T04:33:34.937Z,64.556885
2019-04-03T04:34:44.435Z,63.739014
2019-04-03T04:35:54.947Z,64.459229
2019-04-03T04:37:04.441Z,64.251709
2019-04-03T04:38:14.115Z,64.251709
2019-04-03T04:39:23.438Z,64.044189
2019-04-03T04:40:33.919Z,63.739014
2019-04-03T04:41:43.629Z,64.147949
2019-04-03T04:42:52.942Z,64.459229
2019-04-03T04:44:02.622Z,64.147949
2019-04-03T04:45:12.922Z,64.971924
2019-04-03T04:46:22.511Z,65.692139
2019-04-03T04:47:31.944Z,64.764404
2019-04-03T04:48:41.451Z,64.868164
2019-04-03T04:49:51.713Z,65.2771
2019-04-03T04:51:00.503Z,65.075684
2019-04-03T04:52:10.000Z,64.868164
2019-04-03T04:53:19.506Z,65.075684
2019-04-03T04:54:30.523Z,64.868164
2019-04-03T04:55:38.787Z,65.484619
2019-04-03T04:56:48.084Z,65.075684
2019-04-03T04:57:57.612Z,65.307617
2019-04-03T04:59:08.088Z,66.339111
2019-04-03T05:00:18.581Z,66.339111
2019-04-03T05:01:28.113Z,66.101074
2019-04-03T05:02:37.628Z,65.484619
2019-04-03T05:03:47.304Z,65.2771
2019-04-03T05:04:57.628Z,65.075684
2019-04-03T05:06:07.149Z,65.075684
2019-04-03T05:07:17.385Z,64.660645
2019-04-03T05:08:26.157Z,64.868164
2019-04-03T05:09:36.645Z,64.355469
2019-04-03T05:10:48.595Z,64.251709
2019-04-03T05:11:55.943Z,64.556885
2019-04-03T05:13:05.184Z,64.556885
2019-04-03T05:14:17.613Z,64.428711
2019-04-03T05:15:25.189Z,64.013672
2019-04-03T05:16:34.712Z,64.117432
2019-04-03T05:17:44.222Z,64.013672
2019-04-03T05:18:54.775Z,63.909912
2019-04-03T05:20:05.295Z,63.708496
2019-04-03T05:21:14.746Z,64.117432
2019-04-03T05:22:25.232Z,64.324951
2019-04-03T05:23:34.736Z,64.117432
2019-04-03T05:24:44.252Z,64.117432
2019-04-03T05:25:53.763Z,63.909912
2019-04-03T05:27:07.018Z,63.708496
2019-04-03T05:28:13.768Z,63.781738
2019-04-03T05:29:23.277Z,63.574219
2019-04-03T05:30:32.783Z,64.086914
2019-04-03T05:31:43.288Z,63.470459
2019-04-03T05:32:52.801Z,63.269043
2019-04-03T05:34:02.381Z,62.854004
2019-04-03T05:35:14.573Z,62.957764
2019-04-03T05:36:21.401Z,62.957764
2019-04-03T05:37:30.851Z,62.957764
2019-04-03T05:38:40.366Z,63.165283
2019-04-03T05:39:49.879Z,63.342285
2019-04-03T05:41:00.533Z,63.543701
2019-04-03T05:42:10.042Z,63.885498
2019-04-03T05:43:19.441Z,64.086914
2019-04-03T05:44:28.955Z,64.086914
2019-04-03T05:45:40.855Z,64.294434
2019-04-03T05:46:48.982Z,64.398193
2019-04-03T05:47:58.493Z,63.983154
2019-04-03T05:49:10.647Z,64.190674
2019-04-03T05:50:17.481Z,64.160156
2019-04-03T05:51:29.122Z,64.367676
2019-04-03T05:52:36.500Z,64.569092
2019-04-03T05:53:46.013Z,64.160156
2019-04-03T05:55:02.623Z,63.95874
2019-04-03T05:56:13.091Z,64.263916
2019-04-03T05:57:22.663Z,64.056396
2019-04-03T05:58:33.152Z,64.056396
2019-04-03T05:59:43.952Z,63.95874
2019-04-03T06:01:03.081Z,63.85498
2019-04-03T06:02:13.730Z,63.720703
2019-04-03T06:03:14.234Z,63.513184
2019-04-03T06:04:23.744Z,63.415527
2019-04-03T06:05:33.418Z,63.415527
2019-04-03T06:06:45.748Z,63.415527
2019-04-03T06:07:52.332Z,63.208008
2019-04-03T06:09:01.860Z,63.07373
2019-04-03T06:10:11.580Z,63.28125
2019-04-03T06:11:21.482Z,63.48877
2019-04-03T06:12:30.472Z,63.07373
2019-04-03T06:13:41.030Z,63.38501
2019-04-03T06:14:51.817Z,62.841797
2019-04-03T06:16:01.085Z,62.225342
2019-04-03T06:17:10.631Z,62.225342
2019-04-03T06:18:20.317Z,61.993408
2019-04-03T06:19:30.685Z,61.584473
2019-04-03T06:20:42.426Z,61.273193
2019-04-03T06:21:50.713Z,61.346436
2019-04-03T06:23:00.241Z,61.248779
2019-04-03T06:24:09.775Z,60.9375
2019-04-03T06:25:19.614Z,60.327148
2019-04-03T06:26:28.839Z,60.095215
2019-04-03T06:27:40.642Z,60.296631
2019-04-03T06:28:48.879Z,60.192871
2019-04-03T06:29:58.575Z,59.887695
2019-04-03T06:31:08.746Z,59.960938
2019-04-03T06:32:17.440Z,59.552002
2019-04-03T06:33:30.926Z,59.655762
2019-04-03T06:34:40.526Z,58.734131
2019-04-03T06:35:48.949Z,59.729004
2019-04-03T06:36:58.477Z,59.936523
2019-04-03T06:38:08.033Z,60.137939
2019-04-03T06:39:17.980Z,59.729004
2019-04-03T06:40:28.066Z,60.443115
2019-04-03T06:41:41.455Z,60.314941
2019-04-03T06:42:48.143Z,58.984375
2019-04-03T06:43:57.693Z,58.575439
2019-04-03T06:45:07.210Z,58.270264
2019-04-03T06:46:16.994Z,59.191895
2019-04-03T06:47:26.304Z,59.191895
2019-04-03T06:48:37.227Z,59.802246
2019-04-03T06:49:46.466Z,59.979248
2019-04-03T06:50:55.928Z,60.388184
2019-04-03T06:52:05.474Z,59.161377
2019-04-03T06:53:15.034Z,59.265137
2019-04-03T06:54:24.495Z,59.674072
2019-04-03T06:55:35.223Z,61.206055
2019-04-03T06:56:44.546Z,59.875488
2019-04-03T06:57:54.159Z,59.466553
2019-04-03T06:59:03.497Z,59.057617
2019-04-03T07:00:13.027Z,58.856201
2019-04-03T07:01:22.738Z,58.654785
2019-04-03T07:02:32.425Z,58.752441
2019-04-03T07:03:41.594Z,59.057617
2019-04-03T07:04:51.294Z,58.929443
2019-04-03T07:06:00.629Z,58.520508
2019-04-03T07:07:10.169Z,58.520508
2019-04-03T07:08:29.298Z,58.013916
2019-04-03T07:09:35.481Z,57.806396
2019-04-03T07:10:40.655Z,57.702637
2019-04-03T07:11:51.154Z,57.781982
2019-04-03T07:13:01.683Z,57.574463
2019-04-03T07:14:11.246Z,56.964111
2019-04-03T07:15:21.004Z,56.939697
2019-04-03T07:16:30.273Z,56.939697
2019-04-03T07:17:39.830Z,56.835938
2019-04-03T07:18:49.360Z,56.80542
2019-04-03T07:20:11.793Z,56.604004
2019-04-03T07:21:09.443Z,56.195068
2019-04-03T07:22:18.922Z,56.066895
2019-04-03T07:23:29.870Z,55.841064
2019-04-03T07:24:38.083Z,55.810547
2019-04-03T07:25:47.470Z,54.156494
2019-04-03T07:26:57.132Z,53.344727
2019-04-03T07:28:08.179Z,52.606201
2019-04-03T07:29:17.215Z,52.276611
2019-04-03T07:30:25.595Z,52.252197
2019-04-03T07:31:35.145Z,51.513672
2019-04-03T07:32:44.662Z,50.396729
2019-04-03T07:33:57.083Z,50.067139
2019-04-03T07:35:07.554Z,50.250244
2019-04-03T07:36:15.170Z,49.108887
2019-04-03T07:37:24.964Z,48.498535
2019-04-03T07:38:34.476Z,48.071289
2019-04-03T07:39:43.933Z,47.869873
2019-04-03T07:40:54.291Z,46.630859
2019-04-03T07:42:03.837Z,46.429443
2019-04-03T07:43:13.648Z,46.203613
2019-04-03T07:44:22.896Z,45.898438
2019-04-03T07:45:33.619Z,45.776367
2019-04-03T07:46:42.936Z,44.921875
2019-04-03T07:47:52.446Z,43.786621
2019-04-03T07:49:01.953Z,43.365479
2019-04-03T07:50:12.459Z,43.969727
2019-04-03T07:51:21.954Z,43.463135
2019-04-03T07:52:31.568Z,43.341064
2019-04-03T07:53:41.011Z,42.51709
2019-04-03T07:54:50.677Z,42.089844
2019-04-03T07:56:01.041Z,42.010498
2019-04-03T07:57:10.796Z,42.211914
2019-04-03T07:58:21.054Z,42.492676
2019-04-03T07:59:33.391Z,42.193604
2019-04-03T08:00:40.042Z,42.010498
2019-04-03T08:01:49.575Z,42.5354
2019-04-03T08:02:59.174Z,43.341064
2019-04-03T08:04:08.766Z,42.492676
2019-04-03T08:05:19.142Z,42.071533
2019-04-03T08:06:28.696Z,41.790771
2019-04-03T08:07:39.317Z,42.901611
2019-04-03T08:08:51.091Z,41.564941
2019-04-03T08:09:59.432Z,41.546631
2019-04-03T08:11:08.783Z,40.52124
2019-04-03T08:12:19.309Z,40.704346
2019-04-03T08:13:30.006Z,39.959717
2019-04-03T08:14:41.093Z,39.63623
2019-04-03T08:15:48.876Z,39.013672
2019-04-03T08:16:58.533Z,38.513184
2019-04-03T08:18:07.942Z,38.195801
2019-04-03T08:19:17.879Z,38.17749
2019-04-03T08:20:30.429Z,38.293457
2019-04-03T08:21:37.641Z,38.635254
2019-04-03T08:22:47.143Z,39.453125
2019-04-03T08:23:56.507Z,39.556885
2019-04-03T08:25:06.038Z,38.616943
2019-04-03T08:26:18.335Z,37.573242
2019-04-03T08:27:26.065Z,37.1521
2019-04-03T08:28:35.589Z,37.939453
2019-04-03T08:29:45.095Z,36.61499
2019-04-03T08:30:54.603Z,36.431885
2019-04-03T08:32:04.129Z,37.255859
2019-04-03T08:33:16.994Z,38.360596
2019-04-03T08:34:24.179Z,38.562012
2019-04-03T08:35:35.439Z,37.17041
2019-04-03T08:36:44.202Z,37.457275
2019-04-03T08:37:53.734Z,36.932373
2019-04-03T08:39:03.316Z,36.651611
2019-04-03T08:40:12.874Z,37.835693
2019-04-03T08:41:24.124Z,37.133789
2019-04-03T08:42:33.074Z,37.353516
2019-04-03T08:43:42.329Z,38.275146
2019-04-03T08:44:51.848Z,38.378906
2019-04-03T08:46:01.649Z,36.968994
2019-04-03T08:47:13.593Z,36.767578
2019-04-03T08:48:20.420Z,37.371826
2019-04-03T08:49:29.974Z,37.536621
2019-04-03T08:50:39.491Z,36.700439
2019-04-03T08:51:48.993Z,35.693359
2019-04-03T08:52:58.538Z,35.192871
2019-04-03T08:54:10.185Z,36.334229
2019-04-03T08:55:17.568Z,37.255859
2019-04-03T08:56:27.081Z,37.353516
2019-04-03T08:57:36.620Z,37.536621
2019-04-03T08:58:46.129Z,37.335205
2019-04-03T08:59:55.645Z,37.518311
2019-04-03T09:01:06.127Z,36.535645
2019-04-03T09:02:15.612Z,36.212158
2019-04-03T09:03:25.143Z,35.71167
2019-04-03T09:04:34.808Z,35.693359
2019-04-03T09:05:44.326Z,36.096191
2019-04-03T09:06:54.750Z,35.595703
2019-04-03T09:08:04.207Z,35.913086
2019-04-03T09:09:13.712Z,36.633301
2019-04-03T09:10:23.599Z,36.633301
2019-04-03T09:11:33.997Z,36.517334
2019-04-03T09:12:43.436Z,34.893799
2019-04-03T09:13:54.793Z,35.296631
2019-04-03T09:15:02.464Z,34.576416
2019-04-03T09:16:12.062Z,33.587646
2019-04-03T09:17:21.502Z,33.435059
2019-04-03T09:18:31.068Z,34.790039
2019-04-03T09:19:42.267Z,35.699463
2019-04-03T09:20:51.314Z,35.113525
2019-04-03T09:22:00.577Z,35.931396
2019-04-03T09:23:10.138Z,35.949707
2019-04-03T09:24:19.636Z,36.535645
2019-04-03T09:25:29.493Z,37.426758
2019-04-03T09:26:38.819Z,37.390137
2019-04-03T09:27:48.171Z,35.461426
2019-04-03T09:28:57.687Z,35.748291
2019-04-03T09:30:07.285Z,34.625244
2019-04-03T09:31:18.930Z,34.893799
2019-04-03T09:32:26.229Z,33.978271
2019-04-03T09:33:35.943Z,32.958984
2019-04-03T09:34:45.300Z,34.057617
2019-04-03T09:35:54.809Z,34.460449
2019-04-03T09:37:06.304Z,34.661865
2019-04-03T09:38:15.149Z,34.143066
2019-04-03T09:39:24.359Z,33.740234
2019-04-03T09:40:33.907Z,33.441162
2019-04-03T09:41:43.419Z,33.624268
2019-04-03T09:42:53.942Z,34.210205
2019-04-03T09:44:03.500Z,32.727051
2019-04-03T09:45:13.012Z,32.611084
2019-04-03T09:46:22.528Z,32.8125
2019-04-03T09:47:34.227Z,33.312988
2019-04-03T09:48:41.620Z,33.996582
2019-04-03T09:49:51.145Z,33.612061
2019-04-03T09:51:00.683Z,33.59375
2019-04-03T09:52:10.703Z,33.880615
2019-04-03T09:53:19.752Z,32.37915
2019-04-03T09:54:30.261Z,31.280518
2019-04-03T09:55:40.089Z,30.780029
2019-04-03T09:56:57.715Z,30.523682
2019-04-03T09:58:00.917Z,31.622314
2019-04-03T09:59:09.386Z,31.408691
2019-04-03T10:00:19.765Z,32.122803
2019-04-03T10:01:29.546Z,32.495117
2019-04-03T10:02:38.913Z,31.677246
2019-04-03T10:03:48.306Z,31.079102
2019-04-03T10:04:59.098Z,31.896973
2019-04-03T10:06:08.573Z,31.011963
2019-04-03T10:07:17.821Z,31.738281
2019-04-03T10:08:27.349Z,32.122803
2019-04-03T10:09:38.611Z,32.70874
2019-04-03T10:10:47.932Z,30.926514
2019-04-03T10:11:56.866Z,32.043457
2019-04-03T10:13:06.397Z,31.726074
2019-04-03T10:14:15.911Z,31.109619
2019-04-03T10:15:25.451Z,30.596924
2019-04-03T10:16:36.106Z,30.480957
2019-04-03T10:17:45.520Z,31.011963
2019-04-03T10:18:54.991Z,31.652832
2019-04-03T10:20:04.513Z,33.276367
2019-04-03T10:21:14.045Z,33.544922
2019-04-03T10:22:24.925Z,33.111572
2019-04-03T10:23:34.317Z,32.092285
2019-04-03T10:24:43.551Z,32.476807
2019-04-03T10:25:53.685Z,32.263184
2019-04-03T10:27:02.570Z,32.348633
2019-04-03T10:28:14.693Z,31.433105
2019-04-03T10:29:21.894Z,31.134033
2019-04-03T10:30:31.127Z,31.036377
2019-04-03T10:31:40.626Z,29.925537
2019-04-03T10:32:50.404Z,30.108643
2019-04-03T10:34:00.858Z,29.498291
2019-04-03T10:35:09.258Z,29.498291
2019-04-03T10:36:18.696Z,29.779053
2019-04-03T10:37:28.218Z,30.36499
2019-04-03T10:38:37.758Z,28.173828
2019-04-03T10:39:48.533Z,29.467773
2019-04-03T10:40:58.759Z,29.56543
2019-04-03T10:42:08.286Z,29.669189
2019-04-03T10:43:17.801Z,28.674316
2019-04-03T10:44:27.350Z,27.789307
2019-04-03T10:45:36.987Z,28.497314
2019-04-03T10:46:46.338Z,29.595947
2019-04-03T10:47:56.631Z,29.394531
2019-04-03T10:49:05.341Z,28.78418
2019-04-03T10:50:15.063Z,28.985596
2019-04-03T10:51:24.361Z,27.886963
2019-04-03T10:52:34.890Z,27.191162
2019-04-03T10:53:44.418Z,27.093506
2019-04-03T10:54:56.788Z,26.916504
2019-04-03T10:56:04.417Z,28.112793
2019-04-03T10:57:14.059Z,26.806641
2019-04-03T10:58:23.450Z,26.495361
2019-04-03T10:59:32.961Z,26.678467
2019-04-03T11:00:42.475Z,26.483154
2019-04-03T11:01:52.361Z,26.977539
2019-04-03T11:03:01.517Z,26.220703
2019-04-03T11:04:11.098Z,27.044678
2019-04-03T11:05:20.557Z,27.557373
2019-04-03T11:06:30.153Z,26.068115
2019-04-03T11:07:40.577Z,26.269531
2019-04-03T11:08:50.107Z,27.044678
2019-04-03T11:09:59.640Z,25.421143
2019-04-03T11:11:09.384Z,25.708008
2019-04-03T11:12:18.668Z,25.793457
2019-04-03T11:13:28.199Z,24.005127
2019-04-03T11:14:39.123Z,25.213623
2019-04-03T11:15:48.223Z,25.311279
2019-04-03T11:16:58.134Z,24.316406
2019-04-03T11:18:07.260Z,24.102783
2019-04-03T11:19:19.134Z,23.913574
2019-04-03T11:20:26.303Z,23.937988
2019-04-03T11:21:35.820Z,24.237061
2019-04-03T11:22:45.871Z,25.335693
2019-04-03T11:23:54.902Z,25.756836
2019-04-03T11:25:04.372Z,25.671387
2019-04-03T11:26:13.926Z,25.457764
2019-04-03T11:27:34.525Z,25.57373
2019-04-03T11:28:37.416Z,25.561523
2019-04-03T11:29:44.808Z,25.634766
2019-04-03T11:30:56.266Z,25.610352
2019-04-03T11:32:07.172Z,24.700928
2019-04-03T11:33:15.050Z,23.815918
2019-04-03T11:34:24.680Z,25.048828
2019-04-03T11:35:34.106Z,25.872803
2019-04-03T11:36:43.872Z,25.469971
2019-04-03T11:37:53.157Z,25.482178
2019-04-03T11:39:12.212Z,26.269531
2019-04-03T11:40:13.223Z,25.744629
2019-04-03T11:41:24.427Z,26.654053
2019-04-03T11:42:33.331Z,25.88501
2019-04-03T11:43:43.124Z,26.9104
2019-04-03T11:44:52.566Z,27.081299
2019-04-03T11:46:01.846Z,25.970459
2019-04-03T11:47:13.035Z,25.872803
2019-04-03T11:48:21.203Z,26.446533
2019-04-03T11:49:31.410Z,25.836182
2019-04-03T11:50:40.921Z,26.605225
2019-04-03T11:51:50.410Z,25.88501
2019-04-03T11:53:02.063Z,24.761963
2019-04-03T11:54:10.618Z,24.353027
2019-04-03T11:55:27.016Z,23.834229
2019-04-03T11:56:36.520Z,24.157715
2019-04-03T11:57:48.183Z,24.627686
2019-04-03T11:58:56.505Z,23.913574
2019-04-03T12:00:06.042Z,23.492432
2019-04-03T12:01:16.092Z,22.821045
2019-04-03T12:02:25.076Z,23.327637
2019-04-03T12:03:34.579Z,22.918701
2019-04-03T12:04:44.614Z,22.521973
2019-04-03T12:05:53.624Z,23.669434
2019-04-03T12:07:03.111Z,24.017334
2019-04-03T12:08:13.056Z,23.828125
2019-04-03T12:09:23.154Z,25.134277
2019-04-03T12:10:34.564Z,24.810791
2019-04-03T12:11:42.276Z,24.523926
2019-04-03T12:12:51.677Z,24.224854
2019-04-03T12:14:01.498Z,24.658203
2019-04-03T12:15:10.872Z,24.560547
2019-04-03T12:16:23.843Z,24.017334
2019-04-03T12:17:31.029Z,23.205566
2019-04-03T12:18:40.464Z,24.462891
2019-04-03T12:19:49.850Z,25.384521
2019-04-03T12:20:59.208Z,25.195312
2019-04-03T12:22:08.894Z,25.384521
2019-04-03T12:23:18.319Z,24.047852
2019-04-03T12:24:27.847Z,24.694824
2019-04-03T12:25:38.955Z,24.816895
2019-04-03T12:26:47.136Z,25.030518
2019-04-03T12:27:57.353Z,24.957275
2019-04-03T12:29:07.631Z,24.21875
2019-04-03T12:30:16.374Z,23.071289
2019-04-03T12:31:25.882Z,22.528076
2019-04-03T12:32:38.335Z,21.97876
2019-04-03T12:33:53.097Z,22.070312
2019-04-03T12:34:56.405Z,22.277832
2019-04-03T12:36:06.778Z,22.686768
2019-04-03T12:37:18.340Z,22.277832
2019-04-03T12:38:26.159Z,22.277832
2019-04-03T12:39:35.367Z,21.594238
2019-04-03T12:40:44.892Z,21.514893
2019-04-03T12:41:54.401Z,23.449707
2019-04-03T12:43:04.285Z,23.162842
2019-04-03T12:44:13.471Z,22.918701
2019-04-03T12:45:25.625Z,22.821045
2019-04-03T12:46:34.129Z,23.31543
2019-04-03T12:47:44.660Z,22.631836
2019-04-03T12:48:53.414Z,22.851562
2019-04-03T12:50:03.053Z,22.796631
2019-04-03T12:51:12.458Z,23.016357
2019-04-03T12:52:23.212Z,23.516846
2019-04-03T12:53:32.468Z,24.328613
2019-04-03T12:54:42.284Z,24.230957
2019-04-03T12:55:52.509Z,24.005127
2019-04-03T12:57:03.356Z,22.686768
2019-04-03T12:58:12.513Z,22.796631
2019-04-03T12:59:22.009Z,22.814941
2019-04-03T13:00:31.555Z,23.205566
2019-04-03T13:01:41.043Z,22.271729
2019-04-03T13:02:52.378Z,22.192383
2019-04-03T13:04:00.300Z,22.692871
2019-04-03T13:05:09.874Z,21.795654
2019-04-03T13:06:19.159Z,22.418213
2019-04-03T13:07:28.597Z,22.827148
2019-04-03T13:08:39.466Z,22.607422
2019-04-03T13:09:48.708Z,22.595215
2019-04-03T13:10:58.149Z,22.692871
2019-04-03T13:12:07.651Z,21.575928
2019-04-03T13:13:17.170Z,21.777344
2019-04-03T13:14:27.642Z,20.76416
2019-04-03T13:15:38.055Z,20.837402
2019-04-03T13:16:47.588Z,20.727539
2019-04-03T13:17:57.156Z,20.41626